»·PEaware :: N713AG KPSP-KWHP

N713AG :: KPSP-KWHP

FLIGHT INFORMATION

Flight Status: Arrived
Operator: Privately registered:
United States
More flights under this callsign
Pilot: Charles S. (11412)
Aircraft: SOCATA TBM-900
(TBM9)
More flights by this aircraft type
Origin: KPSP Palm Springs Intl
United States
Destination: KWHP Whiteman
United States
More flights between these airports :: More routes between these airports
Route: +CATH1 PSP V388 PDZ V197 POM V264 ITSME V186 VNY
File this flight plan on PilotEdge
Remarks:
Altitude:
(Current/Filed)
12,000ft
Speed:
(Current/Filed)
220kts
Departed: 08-Nov-18 06:08 PM
Arrived: 08-Nov-18 06:55 PM
Distance/Time
Traveled:
98nm/0:46
Distance/Time
To Go:
Arrived

Flight Plot

Page will automatically refresh every two minutes.

Flight plan parsing failed; only flown route is shown


Map Options




Map Legend


Flown Route
Filed Route
Departure Airport
Arrival Airport
Navaid (VOR, NDB)
Fix

Horizontal Profiles

Position Reports

Time Latitude Longitude Heading Altitude Ground
Speed
08-Nov-18 17:44 33.825352 -116.509542 90 480ft 0kts
08-Nov-18 17:45 33.825352 -116.509542 90 480ft 0kts
08-Nov-18 17:46 33.825352 -116.509542 90 480ft 0kts
08-Nov-18 17:47 33.825352 -116.509542 90 480ft 0kts
08-Nov-18 17:48 33.825352 -116.509542 90 480ft 0kts
08-Nov-18 17:49 33.825352 -116.509542 90 480ft 0kts
08-Nov-18 17:50 33.825352 -116.509542 90 480ft 0kts
08-Nov-18 17:51 33.825352 -116.509542 90 480ft 0kts
08-Nov-18 17:52 33.825352 -116.509542 90 480ft 0kts
08-Nov-18 17:53 33.825352 -116.509542 90 480ft 0kts
08-Nov-18 17:54 33.825352 -116.509542 90 480ft 0kts
08-Nov-18 17:55 33.825352 -116.509542 90 480ft 0kts
08-Nov-18 17:56 33.825352 -116.509542 90 480ft 0kts
08-Nov-18 17:57 33.825352 -116.509542 90 480ft 0kts
08-Nov-18 17:58 33.825352 -116.509542 90 480ft 0kts
08-Nov-18 17:59 33.825352 -116.509542 90 480ft 0kts
08-Nov-18 18:00 33.825352 -116.509542 90 480ft 0kts
08-Nov-18 18:01 33.825352 -116.509542 90 480ft 0kts
08-Nov-18 18:02 33.825352 -116.509542 90 480ft 0kts
08-Nov-18 18:03 33.825352 -116.509542 90 480ft 0kts
08-Nov-18 18:04 33.825352 -116.509542 90 480ft 0kts
08-Nov-18 18:05 33.825368 -116.508212 92 480ft 0kts
08-Nov-18 18:06 33.825368 -116.508212 92 480ft 0kts
08-Nov-18 18:07 33.825359 -116.508043 92 480ft 3kts
08-Nov-18 18:08 33.825355 -116.506379 79 480ft 20kts
08-Nov-18 18:09 33.819124 -116.500258 144 480ft 20kts
08-Nov-18 18:10 33.818523 -116.499084 91 480ft 3kts
08-Nov-18 18:11 33.819955 -116.498980 326 480ft 42kts
08-Nov-18 18:12 33.841131 -116.519106 324 1300ft 125kts
08-Nov-18 18:13 33.870847 -116.547811 324 3186ft 147kts
08-Nov-18 18:14 33.904569 -116.557102 59 4986ft 162kts
08-Nov-18 18:15 33.895496 -116.502076 106 6786ft 182kts
08-Nov-18 18:16 33.875373 -116.444917 107 8597ft 188kts
08-Nov-18 18:17 33.855285 -116.395159 111 10163ft 188kts
08-Nov-18 18:18 33.859591 -116.358977 8 11497ft 157kts
08-Nov-18 18:19 33.874970 -116.395317 271 12038ft 212kts
08-Nov-18 18:20 33.880111 -116.454357 290 12013ft 233kts
08-Nov-18 18:21 33.894686 -116.514591 289 12004ft 248kts
08-Nov-18 18:22 33.907224 -116.566764 289 12000ft 254kts
08-Nov-18 18:23 33.920377 -116.621595 289 11971ft 256kts
08-Nov-18 18:24 33.934098 -116.678954 289 11992ft 256kts
08-Nov-18 18:25 33.947448 -116.735201 286 11978ft 258kts
08-Nov-18 18:26 33.946772 -116.795331 271 11967ft 263kts
08-Nov-18 18:27 33.944676 -116.857876 271 12024ft 261kts
08-Nov-18 18:28 33.942862 -116.911060 271 12018ft 262kts
08-Nov-18 18:29 33.940960 -116.965723 270 12018ft 261kts
08-Nov-18 18:30 33.938216 -117.043254 269 12018ft 259kts
08-Nov-18 18:31 33.935869 -117.108579 268 11569ft 273kts
08-Nov-18 18:32 33.932756 -117.188086 268 10733ft 282kts
08-Nov-18 18:33 33.930353 -117.243929 268 10144ft 283kts
08-Nov-18 18:34 33.927044 -117.319725 268 9327ft 276kts
08-Nov-18 18:35 33.924229 -117.385828 269 8592ft 272kts
08-Nov-18 18:36 33.920595 -117.475092 269 7989ft 260kts
08-Nov-18 18:37 33.934369 -117.554410 308 7997ft 246kts
08-Nov-18 18:38 33.974432 -117.619803 309 7978ft 246kts
08-Nov-18 18:39 34.011001 -117.678574 308 7976ft 248kts
08-Nov-18 18:40 34.050903 -117.742763 307 7977ft 250kts
08-Nov-18 18:41 34.077317 -117.815040 271 7991ft 253kts
08-Nov-18 18:42 34.076691 -117.899063 269 7977ft 254kts
08-Nov-18 18:43 34.075390 -117.982021 269 7970ft 254kts
08-Nov-18 18:44 34.092318 -118.061152 290 7966ft 253kts
08-Nov-18 18:45 34.113655 -118.130758 291 7965ft 253kts
08-Nov-18 18:46 34.135988 -118.203777 291 7968ft 252kts
08-Nov-18 18:47 34.147030 -118.284047 271 7973ft 253kts
08-Nov-18 18:48 34.145978 -118.358925 271 6813ft 218kts
08-Nov-18 18:49 34.144454 -118.426122 272 5820ft 182kts
08-Nov-18 18:50 34.143321 -118.479323 272 5829ft 145kts
08-Nov-18 18:51 34.151365 -118.518984 343 5572ft 139kts
08-Nov-18 18:52 34.189096 -118.520414 355 4282ft 142kts
08-Nov-18 18:53 34.221359 -118.516628 60 3661ft 99kts
08-Nov-18 18:54 34.211506 -118.473839 104 3195ft 152kts
08-Nov-18 18:55 34.214253 -118.430450 79 2369ft 100kts
08-Nov-18 18:56 34.227251 -118.405516 36 1785ft 81kts
08-Nov-18 18:57 34.244304 -118.399033 344 1260ft 80kts
08-Nov-18 18:58 34.259445 -118.413397 317 992ft 33kts
08-Nov-18 18:59 34.262595 -118.416306 330 1000ft 15kts
08-Nov-18 19:00 34.263524 -118.415698 308 1005ft 0kts

Navigation Log

Ident Type
Flight plan parsing failed, navigation log unavailable